createdAt,value
2023-03-12T00:00:04.028Z,99234.69
2023-03-12T00:00:16.365Z,99232.13
2023-03-12T00:00:28.294Z,99232.97
2023-03-12T00:00:41.571Z,99235.53
2023-03-12T00:00:53.503Z,99232.13
2023-03-12T00:01:20.060Z,99237.25
2023-03-12T00:01:33.329Z,99238.09
2023-03-12T00:01:45.284Z,99230.41
2023-03-12T00:01:59.345Z,99234.69
2023-03-12T00:02:11.320Z,99238.09
2023-03-12T00:02:23.343Z,99231.28
2023-03-12T00:02:35.959Z,99233.84
2023-03-12T00:02:47.975Z,99238.09
2023-03-12T00:02:59.953Z,99240.66
2023-03-12T00:03:11.938Z,99240.69
2023-03-12T00:03:26.814Z,99238.09
2023-03-12T00:03:40.234Z,99241.53
2023-03-12T00:03:52.334Z,99235.56
2023-03-12T00:04:07.213Z,99233.00
2023-03-12T00:04:19.218Z,99235.56
2023-03-12T00:04:32.193Z,99241.50
2023-03-12T00:04:44.109Z,99238.09
2023-03-12T00:04:58.747Z,99237.25
2023-03-12T00:05:11.040Z,99238.09
2023-03-12T00:05:25.712Z,99235.53
2023-03-12T00:05:39.128Z,99235.53
2023-03-12T00:05:51.009Z,99237.25
2023-03-12T00:06:10.481Z,99229.59
2023-03-12T00:06:23.081Z,99235.56
2023-03-12T00:06:35.039Z,99233.00
2023-03-12T00:06:46.989Z,99232.97
2023-03-12T00:06:58.876Z,99236.38
2023-03-12T00:07:10.786Z,99232.16
2023-03-12T00:07:22.668Z,99234.69
2023-03-12T00:07:36.440Z,99234.69
2023-03-12T00:07:49.201Z,99235.53
2023-03-12T00:08:01.103Z,99227.88
2023-03-12T00:08:13.272Z,99227.84
2023-03-12T00:08:25.217Z,99232.13
2023-03-12T00:08:37.272Z,99231.25
2023-03-12T00:08:49.468Z,99231.28
2023-03-12T00:09:02.028Z,99232.97
2023-03-12T00:09:14.001Z,99236.38
2023-03-12T00:09:25.902Z,99223.59
2023-03-12T00:09:39.466Z,99236.38
2023-03-12T00:09:51.488Z,99238.09
2023-03-12T00:10:05.544Z,99231.25
2023-03-12T00:10:18.559Z,99231.28
2023-03-12T00:10:30.877Z,99235.53
2023-03-12T00:10:43.030Z,99232.13
2023-03-12T00:10:54.992Z,99231.25
2023-03-12T00:11:14.602Z,99237.25
2023-03-12T00:11:26.562Z,99232.13
2023-03-12T00:11:38.682Z,99232.13
2023-03-12T00:11:50.667Z,99231.28
2023-03-12T00:12:02.921Z,99235.53
2023-03-12T00:12:14.902Z,99230.44
2023-03-12T00:12:26.838Z,99233.00
2023-03-12T00:12:38.754Z,99229.56
2023-03-12T00:12:50.678Z,99232.13
2023-03-12T00:13:02.625Z,99231.28
2023-03-12T00:13:14.588Z,99234.69
2023-03-12T00:13:26.552Z,99233.00
2023-03-12T00:13:38.934Z,99232.97
2023-03-12T00:13:52.260Z,99233.00
2023-03-12T00:14:04.189Z,99232.97
2023-03-12T00:14:16.118Z,99232.97
2023-03-12T00:14:28.114Z,99229.56
2023-03-12T00:14:40.075Z,99236.41
2023-03-12T00:14:51.985Z,99234.66
2023-03-12T00:15:07.466Z,99231.25
2023-03-12T00:15:19.581Z,99233.81
2023-03-12T00:15:31.526Z,99233.81
2023-03-12T00:15:43.535Z,99231.25
2023-03-12T00:15:55.620Z,99234.66
2023-03-12T00:16:13.891Z,99225.31
2023-03-12T00:16:28.335Z,99232.97
2023-03-12T00:16:40.490Z,99232.97
2023-03-12T00:16:52.496Z,99228.72
2023-03-12T00:17:04.425Z,99232.13
2023-03-12T00:17:18.983Z,99231.28
2023-03-12T00:17:30.937Z,99233.81
2023-03-12T00:17:42.922Z,99236.38
2023-03-12T00:17:54.855Z,99229.59
2023-03-12T00:18:06.818Z,99230.41
2023-03-12T00:18:18.767Z,99233.81
2023-03-12T00:18:30.670Z,99231.25
2023-03-12T00:18:43.557Z,99232.97
2023-03-12T00:18:56.001Z,99235.56
2023-03-12T00:19:07.949Z,99236.41
2023-03-12T00:19:19.892Z,99234.69
2023-03-12T00:19:31.789Z,99231.28
2023-03-12T00:19:45.165Z,99234.69
2023-03-12T00:19:57.164Z,99228.75
2023-03-12T00:20:14.824Z,99238.09
2023-03-12T00:20:26.744Z,99235.56
2023-03-12T00:20:38.638Z,99233.81
2023-03-12T00:20:55.213Z,99234.66
2023-03-12T00:21:08.132Z,99238.09
2023-03-12T00:21:21.175Z,99232.97
2023-03-12T00:21:33.271Z,99229.59
2023-03-12T00:21:45.230Z,99229.59
2023-03-12T00:21:57.266Z,99225.31
2023-03-12T00:22:09.206Z,99236.38
2023-03-12T00:22:25.489Z,99227.88
2023-03-12T00:22:37.769Z,99231.28
2023-03-12T00:22:52.844Z,99231.28
2023-03-12T00:23:06.357Z,99232.13
2023-03-12T00:23:18.266Z,99232.97
2023-03-12T00:23:30.267Z,99225.28
2023-03-12T00:23:42.246Z,99226.16
2023-03-12T00:23:54.328Z,99231.28
2023-03-12T00:24:08.114Z,99232.97
2023-03-12T00:24:20.108Z,99228.72
2023-03-12T00:24:32.069Z,99227.84
2023-03-12T00:24:44.061Z,99223.59
2023-03-12T00:24:56.923Z,99225.31
2023-03-12T00:25:13.790Z,99224.47
2023-03-12T00:25:25.739Z,99224.47
2023-03-12T00:25:37.686Z,99227.03
2023-03-12T00:25:49.579Z,99222.72
2023-03-12T00:26:07.381Z,99226.16
2023-03-12T00:26:21.334Z,99227.88
2023-03-12T00:26:33.265Z,99221.88
2023-03-12T00:26:45.186Z,99222.75
2023-03-12T00:26:57.129Z,99227.00
2023-03-12T00:27:09.073Z,99222.75
2023-03-12T00:27:21.706Z,99231.25
2023-03-12T00:27:33.660Z,99230.41
2023-03-12T00:27:45.600Z,99230.41
2023-03-12T00:27:57.499Z,99230.38
2023-03-12T00:28:09.424Z,99230.38
2023-03-12T00:28:21.402Z,99226.13
2023-03-12T00:28:34.886Z,99229.53
2023-03-12T00:28:48.243Z,99221.00
2023-03-12T00:29:00.181Z,99219.28
2023-03-12T00:29:12.098Z,99222.69
2023-03-12T00:29:24.012Z,99223.53
2023-03-12T00:29:36.055Z,99226.09
2023-03-12T00:29:48.268Z,99226.09
2023-03-12T00:30:00.278Z,99224.38
2023-03-12T00:30:12.643Z,99221.81
2023-03-12T00:30:24.600Z,99227.78
2023-03-12T00:30:36.568Z,99225.25
2023-03-12T00:30:48.517Z,99224.38
2023-03-12T00:31:01.570Z,99221.00
2023-03-12T00:31:22.588Z,99216.72
2023-03-12T00:31:34.625Z,99226.94
2023-03-12T00:31:46.644Z,99226.13
2023-03-12T00:31:58.561Z,99221.84
2023-03-12T00:32:10.745Z,99223.53
2023-03-12T00:32:23.611Z,99225.25
2023-03-12T00:32:36.998Z,99219.28
2023-03-12T00:32:48.985Z,99224.41
2023-03-12T00:33:00.917Z,99224.41
2023-03-12T00:33:13.056Z,99227.78
2023-03-12T00:33:26.395Z,99221.81
2023-03-12T00:33:38.603Z,99222.69
2023-03-12T00:33:50.630Z,99222.69
2023-03-12T00:34:03.165Z,99227.81
2023-03-12T00:34:15.222Z,99229.50
2023-03-12T00:34:27.297Z,99217.59
2023-03-12T00:34:39.261Z,99219.31
2023-03-12T00:34:55.928Z,99222.72
2023-03-12T00:35:08.305Z,99224.41
2023-03-12T00:35:20.257Z,99221.88
2023-03-12T00:35:32.682Z,99221.03
2023-03-12T00:35:44.672Z,99222.75
2023-03-12T00:36:00.340Z,99226.13
2023-03-12T00:36:12.549Z,99221.03
2023-03-12T00:36:27.372Z,99227.00
2023-03-12T00:36:41.428Z,99221.03
2023-03-12T00:36:53.363Z,99226.16
2023-03-12T00:37:05.311Z,99222.72
2023-03-12T00:37:17.341Z,99220.19
2023-03-12T00:37:29.329Z,99225.28
2023-03-12T00:37:41.217Z,99220.16
2023-03-12T00:37:53.156Z,99215.91
2023-03-12T00:38:05.127Z,99221.84
2023-03-12T00:38:17.074Z,99222.72
2023-03-12T00:38:29.038Z,99228.66
2023-03-12T00:38:40.937Z,99221.84
2023-03-12T00:38:53.677Z,99222.72
2023-03-12T00:39:05.661Z,99214.19
2023-03-12T00:39:17.661Z,99215.88
2023-03-12T00:39:29.643Z,99228.66
2023-03-12T00:39:41.549Z,99223.56
2023-03-12T00:39:53.541Z,99221.00
2023-03-12T00:40:08.403Z,99223.53
2023-03-12T00:40:20.363Z,99221.84
2023-03-12T00:40:32.352Z,99218.44
2023-03-12T00:40:44.587Z,99218.44
2023-03-12T00:40:56.518Z,99213.34
2023-03-12T00:41:08.705Z,99224.41
2023-03-12T00:41:22.263Z,99216.75
2023-03-12T00:41:34.378Z,99217.59
2023-03-12T00:41:46.373Z,99217.59
2023-03-12T00:41:58.265Z,99215.03
2023-03-12T00:42:10.227Z,99217.59
2023-03-12T00:42:22.195Z,99219.31
2023-03-12T00:42:34.203Z,99221.84
2023-03-12T00:42:46.124Z,99219.31
2023-03-12T00:42:58.030Z,99217.56
2023-03-12T00:43:10.001Z,99215.84
2023-03-12T00:43:21.926Z,99220.97
2023-03-12T00:43:33.908Z,99222.69
2023-03-12T00:43:47.532Z,99222.69
2023-03-12T00:43:59.564Z,99219.28
2023-03-12T00:44:11.516Z,99216.72
2023-03-12T00:44:23.439Z,99219.31
2023-03-12T00:44:35.418Z,99215.88
2023-03-12T00:44:47.467Z,99223.53
2023-03-12T00:44:59.387Z,99216.72
2023-03-12T00:45:11.595Z,99220.97
2023-03-12T00:45:23.505Z,99215.84
2023-03-12T00:45:35.423Z,99217.56
2023-03-12T00:45:47.317Z,99213.28
2023-03-12T00:45:59.340Z,99218.41
2023-03-12T00:46:11.294Z,99210.75
2023-03-12T00:46:23.551Z,99219.28
2023-03-12T00:46:35.577Z,99219.28
2023-03-12T00:46:47.605Z,99215.88
2023-03-12T00:46:59.704Z,99219.31
2023-03-12T00:47:12.441Z,99215.88
2023-03-12T00:47:24.356Z,99215.03
2023-03-12T00:47:36.303Z,99211.63
2023-03-12T00:47:48.232Z,99214.19
2023-03-12T00:48:00.267Z,99218.44
2023-03-12T00:48:12.173Z,99217.59
2023-03-12T00:48:24.172Z,99214.19
2023-03-12T00:48:36.158Z,99215.88
2023-03-12T00:48:48.383Z,99220.16
2023-03-12T00:49:00.345Z,99215.03
2023-03-12T00:49:12.392Z,99217.56
2023-03-12T00:49:24.281Z,99214.19
2023-03-12T00:49:39.016Z,99218.44
2023-03-12T00:49:50.963Z,99212.47
2023-03-12T00:50:03.397Z,99214.16
2023-03-12T00:50:15.546Z,99214.16
2023-03-12T00:50:27.547Z,99207.34
2023-03-12T00:50:39.508Z,99215.84
2023-03-12T00:50:51.436Z,99221.00
2023-03-12T00:51:03.507Z,99213.31
2023-03-12T00:51:15.535Z,99215.03
2023-03-12T00:51:27.473Z,99221.84
2023-03-12T00:51:39.419Z,99216.72
2023-03-12T00:51:51.660Z,99218.47
2023-03-12T00:52:04.461Z,99215.03
2023-03-12T00:52:16.472Z,99217.59
2023-03-12T00:52:28.444Z,99217.59
2023-03-12T00:52:40.376Z,99211.66
2023-03-12T00:52:52.358Z,99219.31
2023-03-12T00:53:04.414Z,99222.72
2023-03-12T00:53:16.343Z,99215.91
2023-03-12T00:53:28.300Z,99215.03
2023-03-12T00:53:40.330Z,99217.59
2023-03-12T00:53:52.340Z,99221.00
2023-03-12T00:54:05.019Z,99214.19
2023-03-12T00:54:17.190Z,99215.88
2023-03-12T00:54:29.128Z,99217.56
2023-03-12T00:54:41.030Z,99220.13
2023-03-12T00:54:52.971Z,99220.13
2023-03-12T00:55:05.233Z,99220.13
2023-03-12T00:55:17.274Z,99217.56
2023-03-12T00:55:29.471Z,99215.84
2023-03-12T00:55:41.396Z,99218.44
2023-03-12T00:55:53.378Z,99218.44
2023-03-12T00:56:06.942Z,99215.88
2023-03-12T00:56:18.905Z,99217.56
2023-03-12T00:56:31.048Z,99217.59
2023-03-12T00:56:42.999Z,99216.72
2023-03-12T00:56:54.884Z,99224.41
2023-03-12T00:57:06.798Z,99218.44
2023-03-12T00:57:18.692Z,99222.72
2023-03-12T00:57:30.751Z,99216.72
2023-03-12T00:57:42.860Z,99218.44
2023-03-12T00:57:54.882Z,99213.34
2023-03-12T00:58:06.785Z,99218.44
2023-03-12T00:58:18.739Z,99217.59
2023-03-12T00:58:30.751Z,99219.31
2023-03-12T00:58:43.229Z,99216.72
2023-03-12T00:58:55.138Z,99216.75
2023-03-12T00:59:07.192Z,99221.84
2023-03-12T00:59:19.258Z,99210.75
2023-03-12T00:59:31.459Z,99212.50
2023-03-12T00:59:43.534Z,99216.72
2023-03-12T00:59:55.508Z,99215.03
2023-03-12T01:00:10.775Z,99212.50
2023-03-12T01:00:22.844Z,99213.34
2023-03-12T01:00:34.961Z,99209.06
2023-03-12T01:00:47.072Z,99209.06
2023-03-12T01:00:59.137Z,99212.47
2023-03-12T01:01:11.195Z,99215.03
2023-03-12T01:01:23.488Z,99210.78
2023-03-12T01:01:35.430Z,99215.88
2023-03-12T01:01:47.456Z,99213.31
2023-03-12T01:01:59.433Z,99214.19
2023-03-12T01:02:11.422Z,99209.06
2023-03-12T01:02:23.421Z,99213.34
2023-03-12T01:02:35.384Z,99209.94
2023-03-12T01:02:47.374Z,99210.78
2023-03-12T01:02:59.316Z,99207.38
2023-03-12T01:03:11.508Z,99207.38
2023-03-12T01:03:23.611Z,99209.94
2023-03-12T01:03:35.636Z,99214.19
2023-03-12T01:03:49.595Z,99206.53
2023-03-12T01:04:01.530Z,99215.91
2023-03-12T01:04:14.341Z,99214.19
2023-03-12T01:04:26.452Z,99209.06
2023-03-12T01:04:38.490Z,99207.38
2023-03-12T01:04:50.423Z,99209.06
2023-03-12T01:05:02.472Z,99217.59
2023-03-12T01:05:15.080Z,99215.03
2023-03-12T01:05:27.088Z,99208.19
2023-03-12T01:05:40.672Z,99218.41
2023-03-12T01:05:55.625Z,99213.31
2023-03-12T01:06:08.117Z,99213.31
2023-03-12T01:06:20.624Z,99215.88
2023-03-12T01:06:35.214Z,99217.59
2023-03-12T01:06:47.218Z,99210.78
2023-03-12T01:06:59.172Z,99211.66
2023-03-12T01:07:11.141Z,99216.75
2023-03-12T01:07:26.166Z,99216.72
2023-03-12T01:07:38.104Z,99208.22
2023-03-12T01:07:50.058Z,99218.44
2023-03-12T01:08:01.971Z,99214.19
2023-03-12T01:08:13.917Z,99210.78
2023-03-12T01:08:25.824Z,99218.44
2023-03-12T01:08:38.080Z,99212.47
2023-03-12T01:08:50.059Z,99210.78
2023-03-12T01:09:05.178Z,99210.78
2023-03-12T01:09:17.148Z,99214.22
2023-03-12T01:09:29.121Z,99212.47
2023-03-12T01:09:41.036Z,99217.59
2023-03-12T01:09:52.930Z,99217.59
2023-03-12T01:10:05.450Z,99219.28
2023-03-12T01:10:19.743Z,99213.28
2023-03-12T01:10:31.710Z,99216.69
2023-03-12T01:10:43.692Z,99209.88
2023-03-12T01:10:55.653Z,99218.34
2023-03-12T01:11:07.600Z,99220.88
2023-03-12T01:11:20.606Z,99215.78
2023-03-12T01:11:33.442Z,99220.03
2023-03-12T01:11:45.386Z,99221.75
2023-03-12T01:11:57.421Z,99224.28
2023-03-12T01:12:09.482Z,99220.03
2023-03-12T01:12:21.479Z,99226.88
2023-03-12T01:12:33.561Z,99221.75
2023-03-12T01:12:45.774Z,99221.72
2023-03-12T01:12:58.342Z,99227.69
2023-03-12T01:13:10.288Z,99222.56
2023-03-12T01:13:22.677Z,99221.69
2023-03-12T01:13:34.658Z,99220.84
2023-03-12T01:13:47.424Z,99223.41
2023-03-12T01:14:00.623Z,99227.66
2023-03-12T01:14:12.512Z,99226.75
2023-03-12T01:14:24.616Z,99222.47
2023-03-12T01:14:36.582Z,99219.06
2023-03-12T01:14:48.653Z,99219.03
2023-03-12T01:15:00.690Z,99220.75
2023-03-12T01:15:15.980Z,99224.16
2023-03-12T01:15:29.070Z,99224.16
2023-03-12T01:15:40.960Z,99219.84
2023-03-12T01:15:52.993Z,99220.72
2023-03-12T01:16:05.350Z,99222.41
2023-03-12T01:16:17.334Z,99224.13
2023-03-12T01:16:30.270Z,99218.19
2023-03-12T01:16:42.290Z,99220.72
2023-03-12T01:16:54.269Z,99225.84
2023-03-12T01:17:06.250Z,99220.72
2023-03-12T01:17:18.188Z,99220.72
2023-03-12T01:17:30.112Z,99224.13
2023-03-12T01:17:42.176Z,99228.31
2023-03-12T01:17:54.146Z,99224.00
2023-03-12T01:18:06.145Z,99224.00
2023-03-12T01:18:18.249Z,99222.28
2023-03-12T01:18:30.241Z,99223.97
2023-03-12T01:18:42.200Z,99223.09
2023-03-12T01:18:55.046Z,99224.75
2023-03-12T01:19:07.065Z,99228.16
2023-03-12T01:19:19.383Z,99222.22
2023-03-12T01:19:31.325Z,99226.44
2023-03-12T01:19:43.320Z,99227.25
2023-03-12T01:19:55.293Z,99225.53
2023-03-12T01:20:08.475Z,99223.81
2023-03-12T01:20:20.722Z,99227.16
2023-03-12T01:20:32.707Z,99219.56
2023-03-12T01:20:44.673Z,99223.75
2023-03-12T01:20:56.657Z,99225.47
2023-03-12T01:21:08.614Z,99228.03
2023-03-12T01:21:20.922Z,99225.50
2023-03-12T01:21:32.957Z,99224.66
2023-03-12T01:21:44.850Z,99219.56
2023-03-12T01:21:56.771Z,99220.44
2023-03-12T01:22:09.139Z,99224.69
2023-03-12T01:22:21.089Z,99217.09
2023-03-12T01:22:33.064Z,99222.25
2023-03-12T01:22:45.139Z,99222.25
2023-03-12T01:22:57.320Z,99218.03
2023-03-12T01:23:09.865Z,99223.16
2023-03-12T01:23:21.887Z,99218.03
2023-03-12T01:23:33.868Z,99222.31
2023-03-12T01:23:45.850Z,99220.66
2023-03-12T01:23:58.703Z,99216.41
2023-03-12T01:24:10.667Z,99218.97
2023-03-12T01:24:22.676Z,99213.03
2023-03-12T01:24:34.645Z,99218.16
2023-03-12T01:24:46.694Z,99215.59
2023-03-12T01:24:58.603Z,99218.19
2023-03-12T01:25:11.820Z,99220.72
2023-03-12T01:25:23.740Z,99216.47
2023-03-12T01:25:37.080Z,99213.91
2023-03-12T01:25:49.423Z,99213.91
2023-03-12T01:26:01.373Z,99208.81
2023-03-12T01:26:13.869Z,99218.22
2023-03-12T01:26:25.892Z,99213.94
2023-03-12T01:26:37.867Z,99213.94
2023-03-12T01:26:49.767Z,99222.47
2023-03-12T01:27:01.652Z,99215.66
2023-03-12T01:27:13.754Z,99215.66
2023-03-12T01:27:25.772Z,99219.91
2023-03-12T01:27:37.732Z,99213.06
2023-03-12T01:27:49.718Z,99219.00
2023-03-12T01:28:02.107Z,99222.41
2023-03-12T01:28:14.255Z,99215.56
2023-03-12T01:28:26.867Z,99214.59
2023-03-12T01:28:38.785Z,99210.31
2023-03-12T01:28:50.683Z,99218.03
2023-03-12T01:29:02.650Z,99213.81
2023-03-12T01:29:14.589Z,99215.53
2023-03-12T01:29:26.677Z,99218.09
2023-03-12T01:29:38.672Z,99209.56
2023-03-12T01:29:50.598Z,99213.84
2023-03-12T01:30:04.016Z,99207.88
2023-03-12T01:30:16.024Z,99216.38
2023-03-12T01:30:28.809Z,99213.00
2023-03-12T01:30:40.744Z,99215.53
2023-03-12T01:30:53.328Z,99218.91
2023-03-12T01:31:14.087Z,99224.84
2023-03-12T01:31:26.361Z,99217.19
2023-03-12T01:31:38.373Z,99219.72
2023-03-12T01:31:51.955Z,99220.59
2023-03-12T01:32:04.212Z,99223.13
2023-03-12T01:32:17.122Z,99216.31
2023-03-12T01:32:29.201Z,99224.75
2023-03-12T01:32:41.421Z,99218.78
2023-03-12T01:32:53.463Z,99220.38
2023-03-12T01:33:05.475Z,99220.34
2023-03-12T01:33:18.495Z,99225.44
2023-03-12T01:33:30.475Z,99220.34
2023-03-12T01:33:42.466Z,99222.06
2023-03-12T01:33:54.557Z,99226.34
2023-03-12T01:34:06.529Z,99225.53
2023-03-12T01:34:18.625Z,99220.44
2023-03-12T01:34:31.640Z,99221.28
2023-03-12T01:34:44.565Z,99226.38
2023-03-12T01:34:58.550Z,99227.25
2023-03-12T01:35:10.720Z,99227.25
2023-03-12T01:35:22.643Z,99224.66
2023-03-12T01:35:39.444Z,99224.66
2023-03-12T01:35:51.711Z,99228.91
2023-03-12T01:36:04.541Z,99219.56
2023-03-12T01:36:24.998Z,99223.84
2023-03-12T01:36:37.024Z,99222.97
2023-03-12T01:36:48.982Z,99220.44
2023-03-12T01:37:01.446Z,99228.06
2023-03-12T01:37:13.455Z,99222.97
2023-03-12T01:37:25.895Z,99222.09
2023-03-12T01:37:37.869Z,99222.06
2023-03-12T01:37:49.918Z,99225.50
2023-03-12T01:38:02.021Z,99226.34
2023-03-12T01:38:15.762Z,99222.06
2023-03-12T01:38:27.679Z,99227.97
2023-03-12T01:38:39.557Z,99221.97
2023-03-12T01:38:53.338Z,99231.38
2023-03-12T01:39:05.707Z,99226.28
2023-03-12T01:39:17.725Z,99225.50
2023-03-12T01:39:29.700Z,99225.53
2023-03-12T01:39:41.676Z,99228.06
2023-03-12T01:39:53.604Z,99229.75
2023-03-12T01:40:06.128Z,99233.19
2023-03-12T01:40:25.447Z,99228.91
2023-03-12T01:40:38.044Z,99222.97
2023-03-12T01:40:49.954Z,99223.78
2023-03-12T01:41:01.838Z,99227.94
2023-03-12T01:41:13.797Z,99226.16
2023-03-12T01:41:28.536Z,99230.28
2023-03-12T01:41:41.110Z,99227.00
2023-03-12T01:41:53.213Z,99230.44
2023-03-12T01:42:05.683Z,99221.13
2023-03-12T01:42:17.719Z,99225.44
2023-03-12T01:42:29.651Z,99227.19
2023-03-12T01:42:41.755Z,99231.50
2023-03-12T01:42:54.869Z,99227.25
2023-03-12T01:43:37.404Z,99226.50
2023-03-12T01:43:49.502Z,99231.59
2023-03-12T01:44:03.734Z,99227.38
2023-03-12T01:44:15.773Z,99227.41
2023-03-12T01:44:28.428Z,99227.41
2023-03-12T01:44:52.372Z,99227.50
2023-03-12T01:45:04.867Z,99223.22
2023-03-12T01:46:10.931Z,99225.00
2023-03-12T01:46:30.513Z,99231.81
2023-03-12T01:46:44.271Z,99225.03
2023-03-12T01:46:56.174Z,99230.13
2023-03-12T01:47:08.701Z,99228.44
2023-03-12T01:47:20.903Z,99229.31
2023-03-12T01:47:32.938Z,99227.56
2023-03-12T01:47:44.867Z,99227.56
2023-03-12T01:47:56.770Z,99231.78
2023-03-12T01:48:09.999Z,99230.09
2023-03-12T01:48:22.499Z,99227.53
2023-03-12T01:48:39.806Z,99226.66
2023-03-12T01:48:59.539Z,99227.56
2023-03-12T01:49:29.313Z,99228.38
2023-03-12T01:49:41.513Z,99231.81
2023-03-12T01:49:55.804Z,99224.19
2023-03-12T01:50:08.166Z,99219.06
2023-03-12T01:50:20.199Z,99225.84
2023-03-12T01:50:32.214Z,99227.56
2023-03-12T01:50:44.159Z,99227.56
2023-03-12T01:50:56.159Z,99226.72
2023-03-12T01:51:10.188Z,99225.88
2023-03-12T01:51:24.939Z,99225.88
2023-03-12T01:51:42.833Z,99220.75
2023-03-12T01:52:00.280Z,99220.75
2023-03-12T01:52:18.549Z,99227.59
2023-03-12T01:52:38.012Z,99216.56
2023-03-12T01:52:49.929Z,99219.13
2023-03-12T01:53:02.011Z,99220.84
2023-03-12T01:53:14.054Z,99224.25
2023-03-12T01:53:26.420Z,99218.31
2023-03-12T01:53:42.229Z,99219.16
2023-03-12T01:53:58.242Z,99216.56
2023-03-12T01:54:18.476Z,99219.09
2023-03-12T01:54:40.829Z,99217.41
2023-03-12T01:55:09.321Z,99220.78
2023-03-12T01:55:21.415Z,99217.38
2023-03-12T01:55:33.370Z,99222.44
2023-03-12T01:55:45.301Z,99224.97
2023-03-12T01:56:01.882Z,99224.94
2023-03-12T01:56:17.182Z,99219.72
2023-03-12T01:56:32.701Z,99218.91
2023-03-12T01:56:46.509Z,99226.56
2023-03-12T01:56:58.545Z,99221.47
2023-03-12T01:57:17.305Z,99229.19
2023-03-12T01:57:42.822Z,99229.22
2023-03-12T01:57:58.811Z,99224.09
2023-03-12T01:58:10.883Z,99222.41
2023-03-12T01:58:22.849Z,99219.88
2023-03-12T01:58:37.617Z,99225.88
2023-03-12T01:58:53.160Z,99227.59
2023-03-12T01:59:13.602Z,99231.00
2023-03-12T01:59:32.717Z,99219.91
2023-03-12T01:59:50.168Z,99220.75
2023-03-12T02:00:08.096Z,99221.53
2023-03-12T02:00:24.059Z,99222.28
2023-03-12T02:00:36.057Z,99224.75
2023-03-12T02:00:48.071Z,99218.81
2023-03-12T02:01:00.628Z,99225.66
2023-03-12T02:01:14.532Z,99222.34
2023-03-12T02:01:27.799Z,99223.19
2023-03-12T02:01:41.869Z,99216.41
2023-03-12T02:01:54.062Z,99224.09
2023-03-12T02:02:07.219Z,99215.59
2023-03-12T02:02:24.842Z,99221.56
2023-03-12T02:02:39.934Z,99223.28
2023-03-12T02:02:56.208Z,99219.03
2023-03-12T02:03:09.325Z,99211.38
2023-03-12T02:03:21.458Z,99213.94
2023-03-12T02:03:34.942Z,99217.34
2023-03-12T02:03:50.293Z,99215.63
2023-03-12T02:04:02.452Z,99218.13
2023-03-12T02:04:16.584Z,99219.00
2023-03-12T02:04:31.064Z,99217.31
2023-03-12T02:04:45.268Z,99215.63
2023-03-12T02:05:07.088Z,99219.91
2023-03-12T02:05:26.599Z,99218.22
2023-03-12T02:05:48.210Z,99219.06
2023-03-12T02:06:02.194Z,99219.09
2023-03-12T02:06:16.089Z,99216.56
2023-03-12T02:06:40.014Z,99217.41
2023-03-12T02:07:11.673Z,99214.03
2023-03-12T02:07:23.611Z,99209.78
2023-03-12T02:07:35.600Z,99208.91
2023-03-12T02:07:47.881Z,99212.34
2023-03-12T02:07:59.971Z,99210.63
2023-03-12T02:08:14.405Z,99219.13
2023-03-12T02:08:26.473Z,99208.91
2023-03-12T02:08:43.264Z,99212.31
2023-03-12T02:08:56.746Z,99207.19
2023-03-12T02:09:08.896Z,99208.91
2023-03-12T02:09:21.462Z,99210.59
2023-03-12T02:09:36.905Z,99214.03
2023-03-12T02:09:49.526Z,99208.06
2023-03-12T02:10:03.318Z,99207.19
2023-03-12T02:10:16.140Z,99208.03
2023-03-12T02:10:28.673Z,99208.84
2023-03-12T02:10:40.602Z,99208.03
2023-03-12T02:10:52.631Z,99207.19
2023-03-12T02:11:04.668Z,99214.00
2023-03-12T02:11:16.659Z,99208.03
2023-03-12T02:11:28.577Z,99211.47
2023-03-12T02:11:40.784Z,99207.19
2023-03-12T02:11:52.738Z,99207.19
2023-03-12T02:12:05.387Z,99211.47
2023-03-12T02:12:17.686Z,99202.03
2023-03-12T02:12:29.742Z,99205.44
2023-03-12T02:12:41.649Z,99204.63
2023-03-12T02:12:54.000Z,99200.34
2023-03-12T02:13:06.569Z,99202.91
2023-03-12T02:13:18.896Z,99209.72
2023-03-12T02:13:31.105Z,99202.88
2023-03-12T02:13:43.098Z,99205.44
2023-03-12T02:13:55.120Z,99203.75
2023-03-12T02:14:07.079Z,99204.56
2023-03-12T02:14:19.452Z,99202.88
2023-03-12T02:14:31.942Z,99200.31
2023-03-12T02:14:44.012Z,99203.72
2023-03-12T02:14:56.042Z,99201.06
2023-03-12T02:15:08.921Z,99205.25
2023-03-12T02:15:21.469Z,99205.25
2023-03-12T02:15:35.776Z,99207.81
2023-03-12T02:15:47.896Z,99204.41
2023-03-12T02:16:00.669Z,99208.69
2023-03-12T02:16:12.623Z,99201.91
2023-03-12T02:16:25.113Z,99202.75
2023-03-12T02:16:37.168Z,99201.91
2023-03-12T02:16:49.252Z,99203.59
2023-03-12T02:17:01.379Z,99196.78
2023-03-12T02:17:13.483Z,99200.19
2023-03-12T02:17:25.518Z,99201.06
2023-03-12T02:17:40.317Z,99207.00
2023-03-12T02:17:54.138Z,99198.56
2023-03-12T02:18:08.259Z,99200.25
2023-03-12T02:18:21.369Z,99201.09
2023-03-12T02:18:35.027Z,99205.34
2023-03-12T02:18:50.336Z,99204.50
2023-03-12T02:19:09.055Z,99201.97
2023-03-12T02:19:45.744Z,99199.34
2023-03-12T02:20:14.143Z,99199.41
2023-03-12T02:20:39.841Z,99198.56
2023-03-12T02:21:19.145Z,99196.00
2023-03-12T02:21:33.997Z,99196.00
2023-03-12T02:21:46.358Z,99200.25
2023-03-12T02:21:59.578Z,99190.03
2023-03-12T02:22:13.715Z,99190.88
2023-03-12T02:22:25.918Z,99190.03
2023-03-12T02:22:40.943Z,99196.84
2023-03-12T02:23:06.301Z,99191.75
2023-03-12T02:23:28.955Z,99194.34
2023-03-12T02:24:02.185Z,99194.38
2023-03-12T02:24:29.212Z,99198.66
2023-03-12T02:24:48.114Z,99191.00
2023-03-12T02:25:37.178Z,99193.59
2023-03-12T02:25:52.283Z,99197.00
2023-03-12T02:26:06.649Z,99191.06
2023-03-12T02:26:20.043Z,99204.72
2023-03-12T02:26:33.385Z,99191.06
2023-03-12T02:26:46.054Z,99195.34
2023-03-12T02:26:59.021Z,99196.19
2023-03-12T02:27:12.147Z,99191.94
2023-03-12T02:27:24.501Z,99193.66
2023-03-12T02:27:37.726Z,99186.84
2023-03-12T02:27:49.703Z,99191.09
2023-03-12T02:28:04.966Z,99195.34
2023-03-12T02:28:19.633Z,99189.38
2023-03-12T02:28:34.674Z,99191.94
2023-03-12T02:28:47.846Z,99187.69
2023-03-12T02:29:01.044Z,99188.53
2023-03-12T02:29:13.714Z,99196.19
2023-03-12T02:29:30.306Z,99186.84
2023-03-12T02:29:44.577Z,99185.13
2023-03-12T02:29:56.544Z,99189.34
2023-03-12T02:30:09.550Z,99190.22
2023-03-12T02:30:22.396Z,99185.09
2023-03-12T02:30:34.840Z,99194.47
2023-03-12T02:30:49.830Z,99191.06
2023-03-12T02:31:04.208Z,99191.91
2023-03-12T02:31:20.482Z,99192.72
2023-03-12T02:31:42.929Z,99185.94
2023-03-12T02:31:57.859Z,99187.66
2023-03-12T02:32:17.692Z,99195.28
2023-03-12T02:32:39.504Z,99190.22
2023-03-12T02:32:52.070Z,99191.91
2023-03-12T02:33:07.116Z,99185.13
2023-03-12T02:33:19.404Z,99180.00
2023-03-12T02:33:31.323Z,99192.75
2023-03-12T02:33:43.321Z,99186.81
2023-03-12T02:33:55.950Z,99185.09
2023-03-12T02:34:08.560Z,99187.66
2023-03-12T02:34:20.691Z,99190.19
2023-03-12T02:34:32.806Z,99190.19
2023-03-12T02:34:44.748Z,99192.72
2023-03-12T02:34:57.515Z,99186.72
2023-03-12T02:35:10.101Z,99196.97
2023-03-12T02:35:22.146Z,99187.59
2023-03-12T02:35:34.759Z,99191.03
2023-03-12T02:35:47.857Z,99188.47
2023-03-12T02:35:59.954Z,99191.88
2023-03-12T02:36:12.119Z,99186.78
2023-03-12T02:36:24.145Z,99192.72
2023-03-12T02:36:36.510Z,99187.59
2023-03-12T02:36:49.539Z,99189.28
2023-03-12T02:37:01.885Z,99186.78